createdAt,value
2023-05-21T00:01:19.873Z,61.77
2023-05-21T00:04:22.762Z,62.32
2023-05-21T00:07:25.541Z,62.49
2023-05-21T00:10:28.233Z,62.47
2023-05-21T00:13:30.816Z,62.39
2023-05-21T00:16:33.607Z,61.30
2023-05-21T00:19:36.327Z,61.53
2023-05-21T00:22:40.331Z,61.63
2023-05-21T00:25:42.897Z,61.40
2023-05-21T00:28:45.462Z,61.43
2023-05-21T00:31:48.449Z,60.84
2023-05-21T00:34:51.060Z,61.23
2023-05-21T00:37:54.207Z,61.41
2023-05-21T00:40:56.845Z,61.74
2023-05-21T00:44:00.451Z,62.34
2023-05-21T00:47:03.727Z,62.86
2023-05-21T00:50:06.694Z,62.34
2023-05-21T00:53:12.587Z,61.98
2023-05-21T00:56:15.235Z,62.82
2023-05-21T00:59:17.911Z,63.45
2023-05-21T01:02:20.836Z,63.77
2023-05-21T01:05:23.650Z,63.42
2023-05-21T01:08:27.403Z,63.11
2023-05-21T01:11:41.314Z,62.47
2023-05-21T01:14:44.267Z,62.17
2023-05-21T01:17:47.122Z,62.38
2023-05-21T01:20:50.290Z,62.65
2023-05-21T01:23:52.947Z,63.35
2023-05-21T01:26:56.115Z,63.50
2023-05-21T01:29:59.525Z,63.98
2023-05-21T01:33:05.079Z,64.20
2023-05-21T01:36:28.071Z,64.16
2023-05-21T01:39:33.812Z,63.70
2023-05-21T01:42:37.377Z,62.79
2023-05-21T01:45:40.977Z,62.92
2023-05-21T01:48:44.126Z,63.24
2023-05-21T01:51:47.201Z,64.01
2023-05-21T01:54:51.149Z,63.92
2023-05-21T01:57:54.637Z,63.93
2023-05-21T02:00:57.274Z,63.96
2023-05-21T02:04:00.706Z,64.30
2023-05-21T02:07:03.213Z,64.63
2023-05-21T02:10:06.584Z,64.73
2023-05-21T02:13:08.960Z,64.33
2023-05-21T02:16:14.865Z,64.60
2023-05-21T02:19:17.634Z,64.87
2023-05-21T02:22:20.605Z,64.71
2023-05-21T02:25:22.964Z,65.03
2023-05-21T02:28:25.885Z,65.30
2023-05-21T02:31:28.191Z,65.19
2023-05-21T02:34:32.247Z,65.32
2023-05-21T02:37:35.591Z,65.40
2023-05-21T02:40:38.507Z,65.51
2023-05-21T02:43:41.100Z,64.46
2023-05-21T02:46:43.980Z,64.84
2023-05-21T02:49:47.510Z,65.27
2023-05-21T02:52:50.696Z,65.38
2023-05-21T02:55:53.481Z,65.65
2023-05-21T02:58:56.370Z,66.06
2023-05-21T03:01:58.718Z,66.01
2023-05-21T03:05:01.841Z,65.97
2023-05-21T03:08:04.246Z,65.13
2023-05-21T03:11:07.633Z,65.65
2023-05-21T03:14:10.021Z,65.93
2023-05-21T03:17:17.031Z,66.10
2023-05-21T03:20:19.491Z,66.49
2023-05-21T03:23:22.425Z,66.48
2023-05-21T03:26:27.413Z,66.58
2023-05-21T03:29:31.210Z,66.65
2023-05-21T03:32:38.026Z,66.87
2023-05-21T03:35:42.059Z,65.90
2023-05-21T03:38:44.518Z,66.04
2023-05-21T03:41:47.861Z,66.36
2023-05-21T03:44:51.034Z,66.66
2023-05-21T03:47:55.403Z,66.49
2023-05-21T03:50:57.845Z,66.63
2023-05-21T03:54:01.530Z,66.16
2023-05-21T03:57:04.236Z,66.10
2023-05-21T04:00:09.124Z,65.64
2023-05-21T04:03:18.346Z,66.14
2023-05-21T04:06:22.831Z,66.02
2023-05-21T04:09:25.421Z,65.38
2023-05-21T04:12:28.342Z,65.26
2023-05-21T04:15:30.712Z,65.37
2023-05-21T04:18:34.350Z,66.02
2023-05-21T04:21:37.197Z,65.96
2023-05-21T04:24:40.610Z,65.77
2023-05-21T04:27:43.661Z,66.12
2023-05-21T04:30:47.549Z,65.91
2023-05-21T04:33:50.732Z,64.85
2023-05-21T04:36:54.139Z,63.55
2023-05-21T04:39:57.592Z,63.55
2023-05-21T04:43:01.960Z,63.09
2023-05-21T04:46:04.726Z,63.20
2023-05-21T04:49:07.635Z,63.16
2023-05-21T04:52:10.573Z,63.28
2023-05-21T04:55:13.730Z,63.04
2023-05-21T04:58:18.436Z,63.50
2023-05-21T05:01:27.207Z,61.92
2023-05-21T05:04:29.744Z,61.77
2023-05-21T05:07:32.728Z,61.58
2023-05-21T05:10:35.281Z,62.12
2023-05-21T05:13:39.803Z,62.13
2023-05-21T05:16:43.899Z,58.51
2023-05-21T05:19:46.855Z,58.49
2023-05-21T05:22:49.241Z,57.63
2023-05-21T05:25:53.015Z,56.82
2023-05-21T05:28:55.408Z,56.69
2023-05-21T05:31:58.454Z,56.53
2023-05-21T05:35:02.596Z,56.03
2023-05-21T05:38:05.858Z,55.01
2023-05-21T05:41:08.273Z,54.36
2023-05-21T05:44:11.227Z,53.94
2023-05-21T05:47:13.695Z,53.04
2023-05-21T05:50:16.569Z,52.51
2023-05-21T05:53:18.929Z,53.21
2023-05-21T05:56:22.005Z,52.62
2023-05-21T05:59:24.463Z,51.56
2023-05-21T06:02:31.427Z,51.91
2023-05-21T06:05:35.530Z,51.90
2023-05-21T06:08:40.602Z,52.35
2023-05-21T06:11:43.368Z,52.09
2023-05-21T06:14:47.416Z,51.01
2023-05-21T06:17:50.117Z,50.92
2023-05-21T06:20:53.118Z,50.77
2023-05-21T06:23:56.398Z,50.69
2023-05-21T06:26:59.130Z,50.76
2023-05-21T06:30:01.930Z,49.03
2023-05-21T06:33:05.664Z,48.71
2023-05-21T06:36:08.453Z,48.82
2023-05-21T06:39:11.191Z,49.62
2023-05-21T06:42:14.303Z,48.53
2023-05-21T06:45:19.319Z,47.88
2023-05-21T06:48:22.162Z,47.62
2023-05-21T06:51:24.816Z,46.99
2023-05-21T06:54:27.451Z,46.95
2023-05-21T06:57:30.512Z,47.16
2023-05-21T07:00:33.163Z,46.64
2023-05-21T07:03:36.315Z,46.15
2023-05-21T07:06:39.228Z,45.19
2023-05-21T07:09:42.309Z,45.34
2023-05-21T07:12:45.218Z,46.39
2023-05-21T07:15:47.978Z,45.15
2023-05-21T07:18:50.911Z,45.84
2023-05-21T07:21:53.568Z,45.38
2023-05-21T07:24:56.278Z,45.12
2023-05-21T07:27:59.748Z,44.16
2023-05-21T07:31:02.897Z,43.22
2023-05-21T07:34:06.607Z,44.33
2023-05-21T07:37:09.393Z,42.14
2023-05-21T07:40:12.527Z,43.39
2023-05-21T07:43:15.569Z,41.01
2023-05-21T07:46:18.237Z,41.53
2023-05-21T07:49:21.296Z,43.10
2023-05-21T07:52:24.213Z,42.48
2023-05-21T07:55:26.872Z,40.31
2023-05-21T07:58:31.136Z,41.39
2023-05-21T08:01:34.506Z,42.00
2023-05-21T08:04:40.865Z,41.11
2023-05-21T08:07:44.148Z,40.41
2023-05-21T08:10:47.942Z,41.35
2023-05-21T08:13:50.946Z,40.05
2023-05-21T08:16:53.898Z,39.77
2023-05-21T08:19:56.959Z,40.04
2023-05-21T08:23:00.612Z,37.38
2023-05-21T08:26:04.006Z,37.40
2023-05-21T08:29:07.137Z,37.89
2023-05-21T08:32:10.146Z,37.80
2023-05-21T08:35:13.909Z,35.09
2023-05-21T08:38:17.700Z,36.82
2023-05-21T08:41:23.427Z,37.79
2023-05-21T08:44:28.466Z,36.35
2023-05-21T08:47:33.189Z,35.19
2023-05-21T08:50:35.847Z,35.29
2023-05-21T08:53:39.762Z,35.05
2023-05-21T08:56:47.063Z,35.26
2023-05-21T08:59:52.484Z,35.52
2023-05-21T09:02:57.187Z,34.50
2023-05-21T09:06:00.863Z,33.29
2023-05-21T09:09:06.825Z,32.33
2023-05-21T09:12:11.071Z,32.56
2023-05-21T09:15:13.435Z,33.00
2023-05-21T09:18:16.837Z,31.76
2023-05-21T09:21:23.935Z,31.49
2023-05-21T09:24:30.480Z,30.97
2023-05-21T09:27:35.349Z,31.22
2023-05-21T09:30:43.874Z,29.49
2023-05-21T09:33:50.109Z,30.32
2023-05-21T09:36:56.701Z,26.81
2023-05-21T09:39:59.277Z,29.90
2023-05-21T09:43:02.344Z,29.94
2023-05-21T09:46:05.396Z,27.11
2023-05-21T09:49:24.121Z,28.61
2023-05-21T09:52:28.259Z,26.64
2023-05-21T09:55:31.393Z,25.88
2023-05-21T09:58:34.562Z,28.50
2023-05-21T10:01:38.784Z,26.63
2023-05-21T10:04:42.451Z,27.23
2023-05-21T10:07:49.444Z,26.75
2023-05-21T10:10:52.072Z,27.87
2023-05-21T10:14:01.035Z,25.30
2023-05-21T10:17:05.261Z,27.46
2023-05-21T10:20:08.660Z,27.70
2023-05-21T10:23:13.041Z,28.50
2023-05-21T10:26:16.494Z,25.22
2023-05-21T10:29:19.897Z,24.21
2023-05-21T10:32:23.063Z,24.74
2023-05-21T10:35:25.981Z,28.16
2023-05-21T10:38:29.337Z,27.49
2023-05-21T10:41:35.891Z,27.08
2023-05-21T10:44:55.141Z,27.46
2023-05-21T10:48:16.630Z,28.07
2023-05-21T10:51:37.792Z,27.06
2023-05-21T10:54:59.143Z,23.48
2023-05-21T10:58:34.014Z,26.55
2023-05-21T11:01:38.158Z,27.20
2023-05-21T11:04:43.311Z,24.52
2023-05-21T11:08:02.498Z,27.44
2023-05-21T11:11:05.222Z,29.22
2023-05-21T11:14:26.867Z,36.34
2023-05-21T11:17:39.169Z,32.27
2023-05-21T11:20:44.894Z,34.59
2023-05-21T11:23:50.830Z,26.99
2023-05-21T11:26:58.658Z,31.14
2023-05-21T11:30:04.181Z,28.55
2023-05-21T11:33:11.312Z,27.62
2023-05-21T11:36:14.282Z,26.57
2023-05-21T11:39:21.928Z,28.03
2023-05-21T11:42:28.805Z,30.44
2023-05-21T11:45:32.869Z,30.08
2023-05-21T11:48:36.748Z,26.33
2023-05-21T11:51:40.450Z,26.19
2023-05-21T11:54:48.684Z,29.24
2023-05-21T11:57:53.023Z,26.26
2023-05-21T12:00:55.769Z,26.02
2023-05-21T12:03:58.606Z,31.02
2023-05-21T12:07:03.893Z,26.58
2023-05-21T12:10:06.898Z,27.32
2023-05-21T12:13:10.149Z,28.43
2023-05-21T12:16:13.019Z,27.40
2023-05-21T12:19:17.897Z,27.76
2023-05-21T12:22:21.462Z,29.78
2023-05-21T12:25:24.245Z,29.20
2023-05-21T12:28:27.280Z,30.91
2023-05-21T12:31:30.317Z,31.78
2023-05-21T12:34:45.752Z,30.10
2023-05-21T12:37:50.631Z,29.81
2023-05-21T12:40:53.392Z,29.03
2023-05-21T12:43:56.033Z,30.42
2023-05-21T12:47:00.032Z,29.76
2023-05-21T12:50:04.014Z,30.66
2023-05-21T12:53:09.102Z,28.77
2023-05-21T12:56:12.429Z,28.06
2023-05-21T12:59:17.756Z,29.46
2023-05-21T13:02:21.834Z,31.51
2023-05-21T13:05:24.575Z,30.71
2023-05-21T13:08:27.493Z,31.54
2023-05-21T13:11:30.243Z,32.86
2023-05-21T13:14:33.110Z,31.78
2023-05-21T13:17:35.998Z,30.10
2023-05-21T13:20:39.022Z,31.61
2023-05-21T13:23:41.911Z,31.70
2023-05-21T13:26:44.625Z,34.46
2023-05-21T13:29:47.221Z,31.67
2023-05-21T13:32:50.047Z,30.83
2023-05-21T13:35:52.944Z,30.95
2023-05-21T13:38:56.497Z,30.21
2023-05-21T13:41:59.320Z,28.98
2023-05-21T13:45:02.016Z,33.15
2023-05-21T13:48:05.205Z,30.00
2023-05-21T13:51:07.964Z,29.85
2023-05-21T13:54:11.006Z,32.88
2023-05-21T13:57:13.639Z,31.08
2023-05-21T14:00:16.503Z,33.32
2023-05-21T14:03:19.664Z,32.86
2023-05-21T14:06:22.431Z,34.16
2023-05-21T14:09:27.304Z,34.00
2023-05-21T14:12:29.780Z,32.66
2023-05-21T14:15:32.801Z,34.84
2023-05-21T14:18:35.370Z,33.58
2023-05-21T14:21:38.246Z,34.95
2023-05-21T14:24:40.777Z,33.76
2023-05-21T14:27:43.702Z,35.16
2023-05-21T14:30:46.188Z,34.69
2023-05-21T14:33:49.219Z,34.67
2023-05-21T14:36:51.547Z,34.37
2023-05-21T14:39:54.517Z,33.53
2023-05-21T14:42:56.817Z,34.66
2023-05-21T14:45:59.812Z,34.71
2023-05-21T14:49:03.692Z,33.57
2023-05-21T14:52:06.826Z,34.99
2023-05-21T14:55:10.955Z,36.04
2023-05-21T14:58:13.963Z,34.53
2023-05-21T15:01:16.416Z,33.77
2023-05-21T15:04:19.424Z,33.96
2023-05-21T15:07:21.797Z,33.46
2023-05-21T15:10:25.622Z,33.43
2023-05-21T15:13:28.134Z,34.69
2023-05-21T15:16:31.326Z,35.25
2023-05-21T15:19:33.796Z,34.71
2023-05-21T15:22:38.039Z,34.28
2023-05-21T15:25:40.433Z,33.84
2023-05-21T15:28:43.595Z,34.40
2023-05-21T15:31:46.011Z,33.40
2023-05-21T15:34:49.495Z,35.73
2023-05-21T15:37:51.922Z,35.14
2023-05-21T15:40:54.882Z,36.52
2023-05-21T15:43:57.279Z,34.87
2023-05-21T15:47:00.457Z,34.96
2023-05-21T15:50:02.915Z,35.56
2023-05-21T15:53:05.903Z,35.35
2023-05-21T15:56:09.155Z,35.56
2023-05-21T15:59:13.296Z,35.51
2023-05-21T16:02:15.726Z,33.95
2023-05-21T16:05:18.685Z,34.38
2023-05-21T16:08:21.405Z,34.94
2023-05-21T16:11:25.546Z,33.73
2023-05-21T16:14:29.400Z,35.13
2023-05-21T16:17:32.420Z,35.74
2023-05-21T16:20:35.462Z,35.55
2023-05-21T16:23:38.896Z,35.53
2023-05-21T16:26:41.210Z,35.41
2023-05-21T16:29:44.297Z,34.94
2023-05-21T16:32:46.741Z,35.34
2023-05-21T16:35:49.851Z,35.63
2023-05-21T16:38:52.275Z,36.01
2023-05-21T16:41:59.590Z,36.03
2023-05-21T16:45:02.105Z,36.03
2023-05-21T16:48:05.323Z,35.57
2023-05-21T16:51:07.696Z,35.65
2023-05-21T16:54:10.948Z,36.02
2023-05-21T16:57:13.373Z,36.92
2023-05-21T17:00:16.478Z,36.90
2023-05-21T17:03:18.983Z,37.03
2023-05-21T17:06:23.077Z,36.71
2023-05-21T17:09:25.449Z,36.96
2023-05-21T17:12:28.348Z,36.96
2023-05-21T17:15:31.084Z,36.88
2023-05-21T17:18:34.031Z,37.04
2023-05-21T17:21:38.813Z,37.35
2023-05-21T17:24:41.714Z,37.69
2023-05-21T17:27:44.038Z,37.92
2023-05-21T17:30:49.462Z,38.12
2023-05-21T17:33:52.223Z,38.45
2023-05-21T17:36:55.632Z,38.51
2023-05-21T17:39:57.956Z,39.09
2023-05-21T17:43:01.491Z,39.27
2023-05-21T17:46:03.867Z,39.14
2023-05-21T17:49:08.306Z,38.75
2023-05-21T17:52:10.750Z,38.80
2023-05-21T17:55:14.449Z,39.14
2023-05-21T17:58:17.000Z,39.36
2023-05-21T18:01:20.617Z,39.66
2023-05-21T18:04:23.518Z,39.79
2023-05-21T18:07:26.258Z,39.68
2023-05-21T18:10:29.515Z,39.76
2023-05-21T18:13:34.526Z,39.87
2023-05-21T18:16:37.457Z,40.04
2023-05-21T18:19:40.094Z,40.12
2023-05-21T18:22:43.515Z,40.31
2023-05-21T18:25:46.257Z,40.36
2023-05-21T18:28:49.809Z,40.48
2023-05-21T18:31:52.547Z,41.41
2023-05-21T18:34:56.555Z,42.34
2023-05-21T18:37:59.205Z,43.93
2023-05-21T18:41:03.440Z,45.77
2023-05-21T18:44:06.388Z,45.92
2023-05-21T18:47:09.237Z,46.67
2023-05-21T18:50:15.504Z,46.51
2023-05-21T18:53:18.328Z,45.59
2023-05-21T18:56:21.998Z,44.83
2023-05-21T18:59:24.637Z,46.10
2023-05-21T19:02:28.219Z,47.09
2023-05-21T19:05:31.088Z,46.25
2023-05-21T19:08:33.781Z,46.51
2023-05-21T19:11:37.515Z,46.71
2023-05-21T19:14:44.845Z,46.53
2023-05-21T19:17:47.613Z,47.39
2023-05-21T19:20:50.448Z,48.55
2023-05-21T19:23:54.054Z,48.42
2023-05-21T19:26:56.786Z,48.07
2023-05-21T19:29:59.391Z,47.67
2023-05-21T19:33:02.120Z,48.95
2023-05-21T19:36:04.936Z,50.40
2023-05-21T19:39:09.051Z,51.35
2023-05-21T19:42:11.877Z,50.28
2023-05-21T19:45:15.661Z,51.39
2023-05-21T19:48:18.330Z,50.71
2023-05-21T19:51:21.320Z,50.82
2023-05-21T19:54:24.304Z,50.68
2023-05-21T19:57:26.960Z,50.20
2023-05-21T20:00:29.568Z,50.02
2023-05-21T20:03:35.984Z,50.18
2023-05-21T20:06:38.869Z,51.68
2023-05-21T20:09:42.328Z,52.30
2023-05-21T20:12:44.631Z,52.58
2023-05-21T20:15:50.476Z,53.45
2023-05-21T20:18:56.934Z,53.30
2023-05-21T20:21:59.953Z,53.62
2023-05-21T20:25:03.910Z,53.68
2023-05-21T20:28:08.493Z,53.93
2023-05-21T20:31:11.560Z,54.31
2023-05-21T20:34:17.786Z,55.11
2023-05-21T20:37:21.760Z,55.19
2023-05-21T20:40:24.847Z,55.42
2023-05-21T20:43:27.213Z,55.25
2023-05-21T20:46:31.464Z,55.22
2023-05-21T20:49:34.083Z,55.27
2023-05-21T20:52:37.472Z,54.98
2023-05-21T20:55:44.456Z,55.95
2023-05-21T20:58:48.999Z,56.42
2023-05-21T21:01:52.605Z,55.67
2023-05-21T21:04:56.259Z,54.57
2023-05-21T21:08:02.652Z,55.22
2023-05-21T21:11:06.078Z,55.28
2023-05-21T21:14:08.741Z,54.59
2023-05-21T21:17:11.669Z,56.54
2023-05-21T21:20:17.313Z,54.86
2023-05-21T21:23:20.591Z,55.74
2023-05-21T21:26:22.991Z,56.34
2023-05-21T21:29:25.902Z,55.63
2023-05-21T21:32:28.367Z,56.60
2023-05-21T21:35:31.320Z,56.82
2023-05-21T21:38:33.819Z,57.21
2023-05-21T21:41:36.769Z,56.41
2023-05-21T21:44:39.396Z,54.57
2023-05-21T21:47:42.474Z,54.23
2023-05-21T21:50:44.926Z,54.91
2023-05-21T21:53:48.207Z,54.52
2023-05-21T21:56:50.773Z,54.11
2023-05-21T21:59:53.681Z,54.37
2023-05-21T22:02:56.864Z,54.63
2023-05-21T22:05:59.987Z,55.67
2023-05-21T22:09:02.334Z,56.43
2023-05-21T22:12:07.769Z,57.53
2023-05-21T22:15:17.989Z,57.69
2023-05-21T22:18:28.419Z,57.65
2023-05-21T22:21:38.664Z,56.57
2023-05-21T22:24:41.554Z,56.91
2023-05-21T22:27:43.935Z,56.78
2023-05-21T22:30:46.968Z,57.07
2023-05-21T22:33:49.737Z,57.14
2023-05-21T22:36:52.789Z,57.36
2023-05-21T22:39:55.357Z,57.17
2023-05-21T22:42:58.339Z,57.60
2023-05-21T22:46:01.832Z,57.93
2023-05-21T22:49:04.808Z,58.39
2023-05-21T22:52:09.099Z,58.56
2023-05-21T22:55:12.295Z,58.46
2023-05-21T22:58:14.606Z,58.45
2023-05-21T23:01:17.543Z,58.33
2023-05-21T23:04:28.905Z,57.43
2023-05-21T23:07:35.513Z,57.32
2023-05-21T23:10:38.122Z,57.95
2023-05-21T23:13:41.273Z,58.09
2023-05-21T23:16:44.039Z,58.50
2023-05-21T23:19:49.924Z,58.56
2023-05-21T23:22:52.679Z,58.51
2023-05-21T23:25:57.717Z,58.79
2023-05-21T23:29:00.666Z,59.16
2023-05-21T23:32:05.221Z,59.04
2023-05-21T23:35:09.308Z,58.91
2023-05-21T23:38:12.238Z,59.15
2023-05-21T23:41:14.670Z,58.85
2023-05-21T23:44:18.589Z,58.46
2023-05-21T23:47:20.921Z,57.71
2023-05-21T23:50:24.475Z,57.65
2023-05-21T23:53:26.953Z,57.77
2023-05-21T23:56:30.207Z,57.95
2023-05-21T23:59:32.611Z,57.85
